createdAt,value
2022-11-29T00:02:04.532Z,2.85
2022-11-29T00:04:36.961Z,2.83
2022-11-29T00:07:08.965Z,2.83
2022-11-29T00:09:41.180Z,2.83
2022-11-29T00:12:13.238Z,2.82
2022-11-29T00:14:45.572Z,2.80
2022-11-29T00:17:17.811Z,2.78
2022-11-29T00:19:50.123Z,2.76
2022-11-29T00:22:23.758Z,2.73
2022-11-29T00:24:55.812Z,2.69
2022-11-29T00:27:27.826Z,2.65
2022-11-29T00:30:01.081Z,2.58
2022-11-29T00:32:33.528Z,2.53
2022-11-29T00:35:09.336Z,2.47
2022-11-29T00:37:42.076Z,2.41
2022-11-29T00:40:15.227Z,2.35
2022-11-29T00:42:47.347Z,2.29
2022-11-29T00:45:19.486Z,2.23
2022-11-29T00:47:50.013Z,2.17
2022-11-29T00:50:22.155Z,2.10
2022-11-29T00:52:54.213Z,2.05
2022-11-29T00:55:26.282Z,2.00
2022-11-29T00:57:58.289Z,1.95
2022-11-29T01:00:30.226Z,1.91
2022-11-29T01:03:02.909Z,1.87
2022-11-29T01:05:35.081Z,1.84
2022-11-29T01:08:05.903Z,1.80
2022-11-29T01:10:38.216Z,1.76
2022-11-29T01:13:09.327Z,1.72
2022-11-29T01:15:41.699Z,1.67
2022-11-29T01:18:13.708Z,1.65
2022-11-29T01:20:45.654Z,1.62
2022-11-29T01:23:17.819Z,1.62
2022-11-29T01:25:58.927Z,1.61
2022-11-29T01:28:31.553Z,1.60
2022-11-29T01:31:08.762Z,1.59
2022-11-29T01:33:41.107Z,1.58
2022-11-29T01:36:13.266Z,1.58
2022-11-29T01:38:46.014Z,1.54
2022-11-29T01:41:21.112Z,1.48
2022-11-29T01:44:03.816Z,1.38
2022-11-29T01:46:37.721Z,1.30
2022-11-29T01:49:13.092Z,1.19
2022-11-29T01:51:48.954Z,1.09
2022-11-29T01:54:22.359Z,1.00
2022-11-29T01:56:55.166Z,0.91
2022-11-29T01:59:30.867Z,0.86
2022-11-29T02:02:07.574Z,0.83
2022-11-29T02:04:43.164Z,0.81
2022-11-29T02:07:15.850Z,0.80
2022-11-29T02:09:48.039Z,0.81
2022-11-29T02:12:22.827Z,0.82
2022-11-29T02:15:22.814Z,0.82
2022-11-29T02:18:04.343Z,0.88
2022-11-29T02:21:10.155Z,0.91
2022-11-29T02:24:08.316Z,0.91
2022-11-29T02:27:13.261Z,0.88
2022-11-29T02:30:15.797Z,0.86
2022-11-29T02:33:14.257Z,0.82
2022-11-29T02:36:21.676Z,0.79
2022-11-29T02:39:17.085Z,0.76
2022-11-29T02:42:06.767Z,0.74
2022-11-29T02:44:52.937Z,0.70
2022-11-29T02:47:37.846Z,0.71
2022-11-29T02:50:21.301Z,0.73
2022-11-29T02:53:02.987Z,0.76
2022-11-29T02:55:45.128Z,0.79
2022-11-29T02:58:27.062Z,0.82
2022-11-29T03:01:05.599Z,0.85
2022-11-29T03:03:41.199Z,0.87
2022-11-29T03:06:24.113Z,0.88
2022-11-29T03:09:03.720Z,0.89
2022-11-29T03:11:44.836Z,0.90
2022-11-29T03:14:25.615Z,0.91
2022-11-29T03:17:08.973Z,0.94
2022-11-29T03:19:58.156Z,0.94
2022-11-29T03:22:43.034Z,0.96
2022-11-29T03:25:23.626Z,0.95
2022-11-29T03:28:01.362Z,0.99
2022-11-29T03:30:38.877Z,1.03
2022-11-29T03:33:18.233Z,1.06
2022-11-29T03:36:00.381Z,1.08
2022-11-29T03:38:39.862Z,1.10
2022-11-29T03:41:21.415Z,1.15
2022-11-29T03:44:01.364Z,1.17
2022-11-29T03:46:38.558Z,1.19
2022-11-29T03:49:17.591Z,1.22
2022-11-29T03:51:59.755Z,1.22
2022-11-29T03:54:40.001Z,1.23
2022-11-29T03:57:14.995Z,1.26
2022-11-29T03:59:58.633Z,1.31
2022-11-29T04:03:01.446Z,1.39
2022-11-29T04:05:46.090Z,1.52
2022-11-29T04:08:51.286Z,1.65
2022-11-29T04:11:59.921Z,1.77
2022-11-29T04:14:35.833Z,1.88
2022-11-29T04:17:37.482Z,1.96
2022-11-29T04:20:41.221Z,2.03
2022-11-29T04:23:46.277Z,2.09
2022-11-29T04:27:09.403Z,2.15
2022-11-29T04:29:53.877Z,2.18
2022-11-29T04:32:49.480Z,2.22
2022-11-29T04:35:51.909Z,2.25
2022-11-29T04:39:02.424Z,2.27
2022-11-29T04:41:58.679Z,2.29
2022-11-29T04:44:47.531Z,2.31
2022-11-29T04:47:50.842Z,2.33
2022-11-29T04:50:34.415Z,2.36
2022-11-29T04:53:30.712Z,2.38
2022-11-29T04:56:11.595Z,2.41
2022-11-29T04:58:53.038Z,2.43
2022-11-29T05:01:33.004Z,2.45
2022-11-29T05:04:14.723Z,2.47
2022-11-29T05:07:00.220Z,2.48
2022-11-29T05:09:44.771Z,2.49
2022-11-29T05:12:24.417Z,2.51
2022-11-29T05:15:17.924Z,2.54
2022-11-29T05:18:05.683Z,2.55
2022-11-29T05:20:46.588Z,2.58
2022-11-29T05:23:33.602Z,2.60
2022-11-29T05:26:11.109Z,2.61
2022-11-29T05:28:51.423Z,2.62
2022-11-29T05:31:30.918Z,2.63
2022-11-29T05:34:39.093Z,2.64
2022-11-29T05:37:24.194Z,2.64
2022-11-29T05:40:19.143Z,2.65
2022-11-29T05:43:06.344Z,2.66
2022-11-29T05:45:45.194Z,2.67
2022-11-29T05:48:25.985Z,2.67
2022-11-29T05:51:12.697Z,2.68
2022-11-29T05:53:54.044Z,2.69
2022-11-29T05:56:35.503Z,2.69
2022-11-29T05:59:12.286Z,2.70
2022-11-29T06:01:53.534Z,2.72
2022-11-29T06:04:34.344Z,2.73
2022-11-29T06:07:13.254Z,2.73
2022-11-29T06:09:51.782Z,2.75
2022-11-29T06:12:26.850Z,2.76
2022-11-29T06:15:17.234Z,2.77
2022-11-29T06:18:08.480Z,2.76
2022-11-29T06:21:04.465Z,2.77
2022-11-29T06:23:58.994Z,2.78
2022-11-29T06:26:58.213Z,2.81
2022-11-29T06:29:44.049Z,2.83
2022-11-29T06:32:29.352Z,2.84
2022-11-29T06:35:05.991Z,2.87
2022-11-29T06:37:43.057Z,2.88
2022-11-29T06:40:17.470Z,2.88
2022-11-29T06:42:50.024Z,2.89
2022-11-29T06:45:23.657Z,2.89
2022-11-29T06:48:01.895Z,2.91
2022-11-29T06:50:45.057Z,2.93
2022-11-29T06:53:25.480Z,2.94
2022-11-29T06:56:05.585Z,2.95
2022-11-29T06:58:47.331Z,2.95
2022-11-29T07:01:30.276Z,2.95
2022-11-29T07:04:32.043Z,2.96
2022-11-29T07:07:05.154Z,2.97
2022-11-29T07:09:38.734Z,2.99
2022-11-29T07:12:12.169Z,3.01
2022-11-29T07:14:45.601Z,3.02
2022-11-29T07:17:28.030Z,3.04
2022-11-29T07:20:11.447Z,3.05
2022-11-29T07:23:02.214Z,3.07
2022-11-29T07:25:44.536Z,3.09
2022-11-29T07:28:29.150Z,3.10
2022-11-29T07:31:07.565Z,3.12
2022-11-29T07:33:49.109Z,3.15
2022-11-29T07:36:31.463Z,3.18
2022-11-29T07:39:05.875Z,3.20
2022-11-29T07:41:45.744Z,3.23
2022-11-29T07:44:28.271Z,3.26
2022-11-29T07:46:58.925Z,3.29
2022-11-29T07:49:31.089Z,3.32
2022-11-29T07:52:01.537Z,3.35
2022-11-29T07:54:33.724Z,3.38
2022-11-29T07:57:04.245Z,3.41
2022-11-29T07:59:36.234Z,3.43
2022-11-29T08:02:11.658Z,3.45
2022-11-29T08:04:45.876Z,3.47
2022-11-29T08:07:18.326Z,3.49
2022-11-29T08:09:50.842Z,3.52
2022-11-29T08:12:21.543Z,3.54
2022-11-29T08:14:53.928Z,3.55
2022-11-29T08:17:24.979Z,3.57
2022-11-29T08:20:00.027Z,3.57
2022-11-29T08:22:36.126Z,3.59
2022-11-29T08:25:07.450Z,3.61
2022-11-29T08:27:39.991Z,3.61
2022-11-29T08:30:13.054Z,3.62
2022-11-29T08:32:49.989Z,3.62
2022-11-29T08:35:25.154Z,3.63
2022-11-29T08:37:57.435Z,3.66
2022-11-29T08:40:29.494Z,3.66
2022-11-29T08:43:01.773Z,3.68
2022-11-29T08:45:33.987Z,3.71
2022-11-29T08:48:04.513Z,3.73
2022-11-29T08:50:36.508Z,3.74
2022-11-29T08:53:27.528Z,3.75
2022-11-29T08:56:08.470Z,3.78
2022-11-29T08:58:54.186Z,3.81
2022-11-29T09:01:26.469Z,3.87
2022-11-29T09:04:02.980Z,3.92
2022-11-29T09:06:39.026Z,3.96
2022-11-29T09:09:11.165Z,4.02
2022-11-29T09:11:43.850Z,4.09
2022-11-29T09:14:20.083Z,4.16
2022-11-29T09:16:52.301Z,4.31
2022-11-29T09:19:22.802Z,4.43
2022-11-29T09:21:55.220Z,4.52
2022-11-29T09:24:27.258Z,4.62
2022-11-29T09:26:59.346Z,4.67
2022-11-29T09:29:31.368Z,4.72
2022-11-29T09:32:06.295Z,4.75
2022-11-29T09:34:38.517Z,4.79
2022-11-29T09:37:09.160Z,4.85
2022-11-29T09:39:41.759Z,4.90
2022-11-29T09:42:39.387Z,4.99
2022-11-29T09:45:16.927Z,5.08
2022-11-29T09:48:23.401Z,5.11
2022-11-29T09:51:07.351Z,5.15
2022-11-29T09:53:52.758Z,5.21
2022-11-29T09:56:32.423Z,5.28
2022-11-29T09:59:10.766Z,5.37
2022-11-29T10:01:47.287Z,5.48
2022-11-29T10:04:23.867Z,5.58
2022-11-29T10:07:03.970Z,5.67
2022-11-29T10:09:42.304Z,5.72
2022-11-29T10:12:19.580Z,5.77
2022-11-29T10:14:57.805Z,5.83
2022-11-29T10:17:38.313Z,5.89
2022-11-29T10:20:18.133Z,5.96
2022-11-29T10:22:55.432Z,6.08
2022-11-29T10:25:30.767Z,6.20
2022-11-29T10:28:04.665Z,6.31
2022-11-29T10:30:38.276Z,6.40
2022-11-29T10:33:19.278Z,6.50
2022-11-29T10:35:56.937Z,6.61
2022-11-29T10:38:31.108Z,6.66
2022-11-29T10:41:08.702Z,6.69
2022-11-29T10:43:41.380Z,6.67
2022-11-29T10:46:19.634Z,6.64
2022-11-29T10:48:52.227Z,6.61
2022-11-29T10:51:24.376Z,6.58
2022-11-29T10:53:55.672Z,6.55
2022-11-29T10:56:37.554Z,6.47
2022-11-29T10:59:20.610Z,6.40
2022-11-29T11:01:53.759Z,6.32
2022-11-29T11:04:31.423Z,6.25
2022-11-29T11:07:05.262Z,6.21
2022-11-29T11:09:40.122Z,6.15
2022-11-29T11:12:22.071Z,6.11
2022-11-29T11:15:14.121Z,6.11
2022-11-29T11:17:58.806Z,6.12
2022-11-29T11:20:33.019Z,6.10
2022-11-29T11:23:06.602Z,6.06
2022-11-29T11:25:41.168Z,6.05
2022-11-29T11:28:21.537Z,6.07
2022-11-29T11:30:56.159Z,6.08
2022-11-29T11:33:31.356Z,6.13
2022-11-29T11:36:10.135Z,6.18
2022-11-29T11:38:50.251Z,6.17
2022-11-29T11:41:49.633Z,6.16
2022-11-29T11:44:53.697Z,6.10
2022-11-29T11:47:28.299Z,6.03
2022-11-29T11:50:12.777Z,5.99
2022-11-29T11:52:50.609Z,5.94
2022-11-29T11:55:34.791Z,5.91
2022-11-29T11:58:18.532Z,5.88
2022-11-29T12:01:08.894Z,5.83
2022-11-29T12:03:50.885Z,5.79
2022-11-29T12:06:36.346Z,5.74
2022-11-29T12:09:19.533Z,5.72
2022-11-29T12:12:00.365Z,5.71
2022-11-29T12:14:39.315Z,5.69
2022-11-29T12:17:20.790Z,5.71
2022-11-29T12:20:14.748Z,5.72
2022-11-29T12:23:00.222Z,5.73
2022-11-29T12:25:36.948Z,5.77
2022-11-29T12:28:18.574Z,5.83
2022-11-29T12:31:00.258Z,5.91
2022-11-29T12:33:44.883Z,5.98
2022-11-29T12:36:29.629Z,6.02
2022-11-29T12:39:12.253Z,6.02
2022-11-29T12:41:54.183Z,6.01
2022-11-29T12:44:39.517Z,5.98
2022-11-29T12:47:37.971Z,5.99
2022-11-29T12:50:24.634Z,5.99
2022-11-29T12:53:06.629Z,6.00
2022-11-29T12:55:49.081Z,5.99
2022-11-29T12:58:34.223Z,5.96
2022-11-29T13:01:17.495Z,5.95
2022-11-29T13:03:58.200Z,5.94
2022-11-29T13:06:38.847Z,5.93
2022-11-29T13:09:35.393Z,5.92
2022-11-29T13:12:13.872Z,5.89
2022-11-29T13:14:54.010Z,5.84
2022-11-29T13:17:33.361Z,5.83
2022-11-29T13:20:21.614Z,5.82
2022-11-29T13:22:57.560Z,5.81
2022-11-29T13:25:34.545Z,5.78
2022-11-29T13:28:12.785Z,5.74
2022-11-29T13:30:45.718Z,5.70
2022-11-29T13:33:24.927Z,5.68
2022-11-29T13:36:02.561Z,5.63
2022-11-29T13:38:43.660Z,5.59
2022-11-29T13:41:28.071Z,5.56
2022-11-29T13:44:08.304Z,5.53
2022-11-29T13:46:48.225Z,5.48
2022-11-29T13:49:53.832Z,5.45
2022-11-29T13:52:36.087Z,5.40
2022-11-29T13:55:23.058Z,5.34
2022-11-29T13:58:16.200Z,5.29
2022-11-29T14:00:53.473Z,5.24
2022-11-29T14:03:32.486Z,5.20
2022-11-29T14:06:15.112Z,5.15
2022-11-29T14:09:18.404Z,5.09
2022-11-29T14:11:59.019Z,5.03
2022-11-29T14:14:37.002Z,4.98
2022-11-29T14:17:48.784Z,4.94
2022-11-29T14:20:59.444Z,4.89
2022-11-29T14:23:40.571Z,4.86
2022-11-29T14:26:32.724Z,4.84
2022-11-29T14:29:33.983Z,4.79
2022-11-29T14:32:21.542Z,4.74
2022-11-29T14:34:56.836Z,4.70
2022-11-29T14:37:45.684Z,4.68
2022-11-29T14:40:28.696Z,4.64
2022-11-29T14:43:01.371Z,4.60
2022-11-29T14:45:35.380Z,4.58
2022-11-29T14:48:24.751Z,4.54
2022-11-29T14:51:10.827Z,4.50
2022-11-29T14:53:44.642Z,4.48
2022-11-29T14:56:45.706Z,4.45
2022-11-29T14:59:52.702Z,4.43
2022-11-29T15:02:33.684Z,4.39
2022-11-29T15:05:22.038Z,4.37
2022-11-29T15:08:09.746Z,4.36
2022-11-29T15:10:45.139Z,4.35
2022-11-29T15:13:27.000Z,4.34
2022-11-29T15:16:23.462Z,4.33
2022-11-29T15:19:19.563Z,4.31
2022-11-29T15:22:01.266Z,4.29
2022-11-29T15:24:33.701Z,4.28
2022-11-29T15:27:06.169Z,4.26
2022-11-29T15:29:38.661Z,4.25
2022-11-29T15:32:15.685Z,4.24
2022-11-29T15:34:52.218Z,4.24
2022-11-29T15:37:44.764Z,4.25
2022-11-29T15:40:19.922Z,4.25
2022-11-29T15:42:55.808Z,4.25
2022-11-29T15:45:37.922Z,4.24
2022-11-29T15:48:20.298Z,4.21
2022-11-29T15:50:58.004Z,4.19
2022-11-29T15:53:36.115Z,4.16
2022-11-29T15:56:16.292Z,4.14
2022-11-29T15:58:49.186Z,4.12
2022-11-29T16:01:23.417Z,4.11
2022-11-29T16:03:58.516Z,4.08
2022-11-29T16:06:35.737Z,4.06
2022-11-29T16:09:12.910Z,4.04
2022-11-29T16:11:45.493Z,4.02
2022-11-29T16:14:23.140Z,4.01
2022-11-29T16:16:58.226Z,3.98
2022-11-29T16:19:33.660Z,3.98
2022-11-29T16:22:16.357Z,3.94
2022-11-29T16:24:53.079Z,3.90
2022-11-29T16:27:26.008Z,3.84
2022-11-29T16:29:59.336Z,3.80
2022-11-29T16:32:34.076Z,3.76
2022-11-29T16:35:14.204Z,3.72
2022-11-29T16:37:47.779Z,3.69
2022-11-29T16:40:29.558Z,3.66
2022-11-29T16:43:20.548Z,3.64
2022-11-29T16:46:30.147Z,3.60
2022-11-29T16:49:04.880Z,3.58
2022-11-29T16:51:47.869Z,3.56
2022-11-29T16:54:25.319Z,3.55
2022-11-29T16:56:59.159Z,3.53
2022-11-29T16:59:32.187Z,3.50
2022-11-29T17:02:04.315Z,3.48
2022-11-29T17:04:36.333Z,3.46
2022-11-29T17:07:12.891Z,3.42
2022-11-29T17:09:45.793Z,3.38
2022-11-29T17:12:19.121Z,3.35
2022-11-29T17:14:51.357Z,3.33
2022-11-29T17:17:21.849Z,3.32
2022-11-29T17:19:54.461Z,3.29
2022-11-29T17:22:26.588Z,3.30
2022-11-29T17:25:01.085Z,3.31
2022-11-29T17:27:36.441Z,3.33
2022-11-29T17:30:11.357Z,3.33
2022-11-29T17:32:43.599Z,3.33
2022-11-29T17:35:14.123Z,3.30
2022-11-29T17:37:46.270Z,3.27
2022-11-29T17:40:20.224Z,3.23
2022-11-29T17:42:52.745Z,3.19
2022-11-29T17:45:24.857Z,3.16
2022-11-29T17:47:56.834Z,3.15
2022-11-29T17:50:29.069Z,3.12
2022-11-29T17:52:59.555Z,3.08
2022-11-29T17:55:31.547Z,3.03
2022-11-29T17:58:03.567Z,2.98
2022-11-29T18:00:35.572Z,2.94
2022-11-29T18:03:07.613Z,2.89
2022-11-29T18:05:39.713Z,2.86
2022-11-29T18:08:10.279Z,2.78
2022-11-29T18:10:42.190Z,2.72
2022-11-29T18:13:14.559Z,2.69
2022-11-29T18:15:45.080Z,2.68
2022-11-29T18:18:17.168Z,2.64
2022-11-29T18:20:47.629Z,2.62
2022-11-29T18:23:19.686Z,2.59
2022-11-29T18:25:57.057Z,2.55
2022-11-29T18:28:30.462Z,2.51
2022-11-29T18:31:07.092Z,2.49
2022-11-29T18:33:39.901Z,2.46
2022-11-29T18:36:14.289Z,2.44
2022-11-29T18:38:47.412Z,2.40
2022-11-29T18:41:21.117Z,2.36
2022-11-29T18:43:59.175Z,2.33
2022-11-29T18:46:32.833Z,2.30
2022-11-29T18:49:06.367Z,2.26
2022-11-29T18:51:39.929Z,2.24
2022-11-29T18:54:12.433Z,2.22
2022-11-29T18:56:45.769Z,2.22
2022-11-29T18:59:19.766Z,2.22
2022-11-29T19:01:52.166Z,2.23
2022-11-29T19:04:24.656Z,2.24
2022-11-29T19:06:56.778Z,2.26
2022-11-29T19:09:28.877Z,2.28
2022-11-29T19:12:02.339Z,2.30
2022-11-29T19:14:34.392Z,2.33
2022-11-29T19:17:05.200Z,2.34
2022-11-29T19:19:37.478Z,2.34
2022-11-29T19:22:07.892Z,2.33
2022-11-29T19:24:39.896Z,2.29
2022-11-29T19:27:12.300Z,2.22
2022-11-29T19:29:44.812Z,2.17
2022-11-29T19:32:17.183Z,2.14
2022-11-29T19:34:49.736Z,2.10
2022-11-29T19:37:21.974Z,2.07
2022-11-29T19:39:54.382Z,2.05
2022-11-29T19:42:26.805Z,2.04
2022-11-29T19:45:16.344Z,2.02
2022-11-29T19:47:51.218Z,2.00
2022-11-29T19:50:24.023Z,1.96
2022-11-29T19:52:56.426Z,1.91
2022-11-29T19:55:29.213Z,1.86
2022-11-29T19:58:02.184Z,1.81
2022-11-29T20:00:34.775Z,1.77
2022-11-29T20:03:07.109Z,1.71
2022-11-29T20:05:37.573Z,1.69
2022-11-29T20:08:09.878Z,1.64
2022-11-29T20:10:40.574Z,1.64
2022-11-29T20:13:12.760Z,1.60
2022-11-29T20:15:43.427Z,1.55
2022-11-29T20:18:15.518Z,1.49
2022-11-29T20:20:48.094Z,1.44
2022-11-29T20:23:21.507Z,1.39
2022-11-29T20:25:55.399Z,1.37
2022-11-29T20:28:28.529Z,1.33
2022-11-29T20:31:07.971Z,1.28
2022-11-29T20:33:42.187Z,1.24
2022-11-29T20:36:26.942Z,1.22
2022-11-29T20:39:09.029Z,1.21
2022-11-29T20:41:46.998Z,1.20
2022-11-29T20:44:25.671Z,1.18
2022-11-29T20:46:59.417Z,1.18
2022-11-29T20:49:32.542Z,1.18
2022-11-29T20:52:08.403Z,1.18
2022-11-29T20:54:40.887Z,1.16
2022-11-29T20:57:13.496Z,1.15
2022-11-29T20:59:47.625Z,1.15
2022-11-29T21:02:20.846Z,1.15
2022-11-29T21:04:53.210Z,1.11
2022-11-29T21:07:25.681Z,1.09
2022-11-29T21:10:01.172Z,1.07
2022-11-29T21:12:35.143Z,1.06
2022-11-29T21:15:09.958Z,1.04
2022-11-29T21:17:43.671Z,0.98
2022-11-29T21:20:25.741Z,0.90
2022-11-29T21:23:03.104Z,0.83
2022-11-29T21:25:46.041Z,0.77
2022-11-29T21:28:19.490Z,0.75
2022-11-29T21:30:52.749Z,0.73
2022-11-29T21:33:25.765Z,0.73
2022-11-29T21:35:59.074Z,0.72
2022-11-29T21:38:32.397Z,0.68
2022-11-29T21:41:04.450Z,0.64
2022-11-29T21:44:05.113Z,0.60
2022-11-29T21:46:27.440Z,0.53
2022-11-29T21:48:59.674Z,0.49
2022-11-29T21:51:31.781Z,0.45
2022-11-29T21:54:02.381Z,0.39
2022-11-29T21:56:34.449Z,0.34
2022-11-29T21:59:06.994Z,0.31
2022-11-29T22:01:39.082Z,0.31
2022-11-29T22:04:09.745Z,0.31
2022-11-29T22:06:41.705Z,0.29
2022-11-29T22:09:13.804Z,0.27
2022-11-29T22:11:46.275Z,0.24
2022-11-29T22:14:19.273Z,0.21
2022-11-29T22:16:53.585Z,0.18
2022-11-29T22:19:28.382Z,0.17
2022-11-29T22:22:02.169Z,0.17
2022-11-29T22:24:38.875Z,0.13
2022-11-29T22:27:10.962Z,0.10
2022-11-29T22:29:41.501Z,0.08
2022-11-29T22:32:13.663Z,0.03
2022-11-29T22:34:44.393Z,-0.04
2022-11-29T22:37:16.955Z,-0.10
2022-11-29T22:39:47.538Z,-0.14
2022-11-29T22:42:19.591Z,-0.22
2022-11-29T22:44:50.093Z,-0.27
2022-11-29T22:47:22.048Z,-0.32
2022-11-29T22:49:54.135Z,-0.36
2022-11-29T22:52:26.365Z,-0.37
2022-11-29T22:55:04.291Z,-0.37
2022-11-29T22:57:37.183Z,-0.37
2022-11-29T23:00:13.727Z,-0.38
2022-11-29T23:02:45.841Z,-0.43
2022-11-29T23:05:19.187Z,-0.47
2022-11-29T23:07:54.632Z,-0.51
2022-11-29T23:10:26.934Z,-0.53
2022-11-29T23:12:59.390Z,-0.58
2022-11-29T23:15:31.404Z,-0.62
2022-11-29T23:18:03.718Z,-0.65
2022-11-29T23:20:35.831Z,-0.65
2022-11-29T23:23:06.400Z,-0.63
2022-11-29T23:25:38.458Z,-0.61
2022-11-29T23:28:08.892Z,-0.60
2022-11-29T23:30:41.053Z,-0.58
2022-11-29T23:33:11.577Z,-0.57
2022-11-29T23:35:44.717Z,-0.59
2022-11-29T23:38:17.075Z,-0.63
2022-11-29T23:40:49.309Z,-0.69
2022-11-29T23:43:19.778Z,-0.68
2022-11-29T23:45:51.965Z,-0.68
2022-11-29T23:48:24.329Z,-0.68
2022-11-29T23:50:56.362Z,-0.72
2022-11-29T23:53:28.559Z,-0.69
2022-11-29T23:56:02.505Z,-0.68
2022-11-29T23:58:35.674Z,-0.68
